Wetterdaten: Woche 13.11.17 - 19.11.17 (KW46)
Datum Zeit Temperatur Luftfeuchte Luftdruck Niederschlag Windrichtung Sonnenschein Solar Wind
13.11.2017 00:00 1,3 C 94 % 1005,6 hPa 0,0 l/m W 0,00 h 0 W/m 3,5 km/h (1 Bft)
13.11.2017 01:00 1,3 C 94 % 1006,1 hPa 0,0 l/m N 0,00 h 0 W/m 2,1 km/h (1 Bft)
13.11.2017 02:00 1,1 C 94 % 1006,7 hPa 1,4 l/m N 0,00 h 0 W/m 1,3 km/h (1 Bft)
13.11.2017 03:00 0,8 C 95 % 1006,7 hPa 1,2 l/m W 0,00 h 0 W/m 2,3 km/h (1 Bft)
13.11.2017 04:00 0,9 C 96 % 1007,6 hPa 0,0 l/m N 0,00 h 0 W/m 0,4 km/h (0 Bft)
13.11.2017 05:00 0,9 C 96 % 1008,6 hPa 0,0 l/m W 0,00 h 0 W/m 2,3 km/h (1 Bft)
13.11.2017 06:00 1,1 C 97 % 1009,1 hPa 0,0 l/m W 0,00 h 0 W/m 5,3 km/h (1 Bft)
13.11.2017 07:00 1,1 C 97 % 1010,1 hPa 0,0 l/m N 0,00 h 0 W/m 1,2 km/h (1 Bft)
13.11.2017 08:00 1,2 C 97 % 1011,2 hPa 0,0 l/m W-NW 0,00 h 17 W/m 1,9 km/h (1 Bft)
13.11.2017 09:00 1,6 C 97 % 1011,5 hPa 0,0 l/m N-NW 0,33 h 131 W/m 10,3 km/h (2 Bft)
13.11.2017 10:00 2,3 C 97 % 1012,7 hPa 0,0 l/m N 0,00 h 132 W/m 10,3 km/h (2 Bft)
13.11.2017 11:00 2,9 C 96 % 1013,1 hPa 0,2 l/m N-NO 0,42 h 206 W/m 13,4 km/h (3 Bft)
13.11.2017 12:00 3,8 C 91 % 1013,4 hPa 0,0 l/m N-NO 0,42 h 254 W/m 18,1 km/h (3 Bft)
13.11.2017 13:00 4,4 C 85 % 1013,8 hPa 0,0 l/m N-NO 0,33 h 243 W/m 16,8 km/h (3 Bft)
13.11.2017 14:00 4,1 C 84 % 1014,3 hPa 0,0 l/m N-NO 0,08 h 134 W/m 10,3 km/h (2 Bft)
13.11.2017 15:00 4,0 C 85 % 1015,3 hPa 0,0 l/m N-NO 0,00 h 48 W/m 8,2 km/h (2 Bft)
13.11.2017 16:00 3,2 C 89 % 1016,2 hPa 0,0 l/m N-NO 0,00 h 14 W/m 8,4 km/h (2 Bft)
13.11.2017 17:00 2,6 C 92 % 1017,4 hPa 0,0 l/m N 0,00 h 0 W/m 0,1 km/h (0 Bft)
13.11.2017 18:00 2,4 C 93 % 1018,1 hPa 0,0 l/m N 0,00 h 0 W/m 0,0 km/h (0 Bft)
13.11.2017 19:00 2,2 C 94 % 1018,6 hPa 0,0 l/m N 0,00 h 0 W/m 0,3 km/h (0 Bft)
13.11.2017 20:00 2,0 C 94 % 1019,2 hPa 0,0 l/m N 0,00 h 0 W/m 2,1 km/h (1 Bft)
13.11.2017 21:00 1,5 C 94 % 1019,7 hPa 0,0 l/m N 0,00 h 0 W/m 0,0 km/h (0 Bft)
13.11.2017 22:00 0,9 C 94 % 1020,2 hPa 0,0 l/m N 0,00 h 0 W/m 0,0 km/h (0 Bft)
13.11.2017 23:00 0,8 C 95 % 1020,6 hPa 0,0 l/m N 0,00 h 0 W/m 0,0 km/h (0 Bft)
14.11.2017 00:00 0,5 C 95 % 1020,8 hPa 0,0 l/m N 0,00 h 0 W/m 0,0 km/h (0 Bft)
14.11.2017 01:00 0,1 C 95 % 1021,2 hPa 0,0 l/m N 0,00 h 0 W/m 0,0 km/h (0 Bft)
14.11.2017 02:00 -0,4 C 95 % 1021,8 hPa 0,0 l/m N 0,00 h 0 W/m 0,0 km/h (0 Bft)
14.11.2017 03:00 -0,5 C 96 % 1022,1 hPa 0,0 l/m N 0,00 h 0 W/m 0,0 km/h (0 Bft)
14.11.2017 04:00 0,1 C 96 % 1022,4 hPa 0,0 l/m N 0,00 h 0 W/m 0,0 km/h (0 Bft)
14.11.2017 05:00 0,0 C 96 % 1022,8 hPa 0,0 l/m N 0,00 h 0 W/m 0,0 km/h (0 Bft)
14.11.2017 06:00 -0,7 C 96 % 1023,4 hPa 0,0 l/m N 0,00 h 0 W/m 0,0 km/h (0 Bft)
14.11.2017 07:00 -0,9 C 97 % 1024,1 hPa 0,0 l/m N 0,08 h 14 W/m 0,0 km/h (0 Bft)
14.11.2017 08:00 -0,6 C 97 % 1024,7 hPa 0,0 l/m N-NO 0,00 h 56 W/m 2,0 km/h (1 Bft)
14.11.2017 09:00 -0,7 C 97 % 1025,1 hPa 0,0 l/m N-NO 0,00 h 102 W/m 3,5 km/h (1 Bft)
14.11.2017 10:00 -0,1 C 98 % 1025,3 hPa 0,0 l/m N 0,08 h 171 W/m 3,5 km/h (1 Bft)
14.11.2017 11:00 0,9 C 99 % 1025,3 hPa 0,0 l/m N 0,50 h 252 W/m 5,3 km/h (1 Bft)
14.11.2017 12:00 2,7 C 96 % 1024,9 hPa 0,0 l/m N-NO 0,83 h 361 W/m 4,9 km/h (1 Bft)
14.11.2017 13:00 4,0 C 86 % 1024,8 hPa 0,0 l/m NO 0,75 h 310 W/m 7,1 km/h (2 Bft)
14.11.2017 14:00 3,9 C 84 % 1024,7 hPa 0,0 l/m O-NO 0,50 h 173 W/m 7,5 km/h (2 Bft)
14.11.2017 15:00 3,5 C 84 % 1024,8 hPa 0,0 l/m O-NO 0,50 h 90 W/m 8,0 km/h (2 Bft)
14.11.2017 16:00 2,4 C 88 % 1025,1 hPa 0,0 l/m O 0,08 h 17 W/m 1,6 km/h (1 Bft)
14.11.2017 17:00 1,0 C 92 % 1025,6 hPa 0,0 l/m N 0,00 h 0 W/m 0,0 km/h (0 Bft)
14.11.2017 18:00 0,1 C 92 % 1026,1 hPa 0,0 l/m N 0,00 h 0 W/m 0,0 km/h (0 Bft)
14.11.2017 19:00 -0,6 C 92 % 1026,5 hPa 0,0 l/m N 0,00 h 0 W/m 0,0 km/h (0 Bft)
14.11.2017 20:00 -1,0 C 93 % 1026,8 hPa 0,0 l/m N 0,00 h 0 W/m 0,0 km/h (0 Bft)
14.11.2017 21:00 -1,4 C 94 % 1027,0 hPa 0,0 l/m N 0,00 h 0 W/m 0,0 km/h (0 Bft)
14.11.2017 22:00 -1,7 C 94 % 1027,1 hPa 0,0 l/m O 0,00 h 0 W/m 0,7 km/h (0 Bft)
14.11.2017 23:00 -1,5 C 95 % 1027,0 hPa 0,0 l/m N 0,00 h 0 W/m 0,5 km/h (0 Bft)
15.11.2017 00:00 -1,2 C 96 % 1026,8 hPa 0,0 l/m O 0,00 h 0 W/m 1,2 km/h (1 Bft)
15.11.2017 01:00 -1,2 C 96 % 1026,6 hPa 0,0 l/m O 0,00 h 0 W/m 2,1 km/h (1 Bft)
15.11.2017 02:00 -1,0 C 97 % 1026,6 hPa 0,0 l/m O 0,00 h 0 W/m 1,6 km/h (1 Bft)
15.11.2017 03:00 -0,9 C 97 % 1026,6 hPa 0,0 l/m O 0,00 h 0 W/m 4,7 km/h (1 Bft)
15.11.2017 04:00 -1,1 C 97 % 1026,3 hPa 0,0 l/m O 0,00 h 0 W/m 5,5 km/h (1 Bft)
15.11.2017 05:00 -1,2 C 97 % 1026,0 hPa 0,0 l/m O-NO 0,00 h 0 W/m 8,6 km/h (2 Bft)
15.11.2017 06:00 -1,3 C 97 % 1026,1 hPa 0,0 l/m NO 0,00 h 0 W/m 7,8 km/h (2 Bft)
15.11.2017 07:00 -1,3 C 97 % 1026,5 hPa 0,0 l/m NO 0,00 h 8 W/m 8,7 km/h (2 Bft)
15.11.2017 08:00 -1,4 C 98 % 1026,8 hPa 0,0 l/m NO 0,00 h 28 W/m 8,2 km/h (2 Bft)
15.11.2017 09:00 -1,1 C 98 % 1027,0 hPa 0,0 l/m O-NO 0,00 h 92 W/m 11,8 km/h (2 Bft)
15.11.2017 10:00 -0,5 C 97 % 1027,0 hPa 0,0 l/m O-NO 0,00 h 110 W/m 10,9 km/h (2 Bft)
15.11.2017 11:00 0,1 C 95 % 1026,6 hPa 0,0 l/m NO 0,08 h 177 W/m 11,3 km/h (2 Bft)
15.11.2017 12:00 1,1 C 92 % 1025,9 hPa 0,0 l/m NO 0,67 h 290 W/m 14,4 km/h (3 Bft)
15.11.2017 13:00 1,4 C 90 % 1025,5 hPa 0,0 l/m NO 0,42 h 228 W/m 15,3 km/h (3 Bft)
15.11.2017 14:00 1,8 C 89 % 1025,1 hPa 0,0 l/m NO 0,42 h 153 W/m 14,6 km/h (3 Bft)
15.11.2017 15:00 1,5 C 90 % 1025,0 hPa 0,0 l/m NO 0,17 h 61 W/m 12,2 km/h (2 Bft)
15.11.2017 16:00 1,1 C 92 % 1025,0 hPa 0,0 l/m O-NO 0,00 h 15 W/m 7,0 km/h (2 Bft)
15.11.2017 17:00 0,6 C 92 % 1025,0 hPa 0,0 l/m NO 0,00 h 0 W/m 10,3 km/h (2 Bft)
15.11.2017 18:00 0,3 C 93 % 1025,1 hPa 0,0 l/m O-NO 0,00 h 0 W/m 6,6 km/h (2 Bft)
15.11.2017 19:00 0,1 C 93 % 1025,2 hPa 0,0 l/m NO 0,00 h 0 W/m 10,9 km/h (2 Bft)
15.11.2017 20:00 -0,1 C 93 % 1025,3 hPa 0,0 l/m NO 0,00 h 0 W/m 8,3 km/h (2 Bft)
15.11.2017 21:00 -0,3 C 93 % 1025,2 hPa 0,0 l/m O-NO 0,00 h 0 W/m 8,7 km/h (2 Bft)
15.11.2017 22:00 -0,6 C 92 % 1024,8 hPa 0,0 l/m O 0,00 h 0 W/m 9,4 km/h (2 Bft)
15.11.2017 23:00 -0,7 C 93 % 1024,3 hPa 0,0 l/m O 0,00 h 0 W/m 8,9 km/h (2 Bft)
16.11.2017 00:00 -0,8 C 93 % 1024,1 hPa 0,0 l/m O-NO 0,00 h 0 W/m 10,2 km/h (2 Bft)
16.11.2017 01:00 -0,9 C 92 % 1023,8 hPa 0,0 l/m O-NO 0,00 h 0 W/m 9,7 km/h (2 Bft)
16.11.2017 02:00 -0,9 C 92 % 1023,7 hPa 0,0 l/m O-NO 0,00 h 0 W/m 8,2 km/h (2 Bft)
16.11.2017 03:00 -0,9 C 92 % 1023,3 hPa 0,0 l/m O 0,00 h 0 W/m 7,0 km/h (2 Bft)
16.11.2017 04:00 -0,8 C 92 % 1023,2 hPa 0,0 l/m O 0,00 h 0 W/m 6,5 km/h (2 Bft)
16.11.2017 05:00 -0,8 C 93 % 1023,2 hPa 0,0 l/m O 0,00 h 0 W/m 2,8 km/h (1 Bft)
16.11.2017 06:00 -0,7 C 93 % 1023,2 hPa 0,0 l/m O 0,00 h 0 W/m 2,9 km/h (1 Bft)
16.11.2017 07:00 -0,7 C 93 % 1023,4 hPa 0,0 l/m O 0,00 h 5 W/m 4,3 km/h (1 Bft)
16.11.2017 08:00 -0,6 C 93 % 1023,8 hPa 0,0 l/m O 0,00 h 14 W/m 3,1 km/h (1 Bft)
16.11.2017 09:00 -0,5 C 93 % 1023,8 hPa 0,0 l/m N 0,00 h 35 W/m 1,1 km/h (0 Bft)
16.11.2017 10:00 -0,2 C 93 % 1024,0 hPa 0,0 l/m O 0,00 h 61 W/m 1,6 km/h (1 Bft)
16.11.2017 11:00 0,2 C 92 % 1023,9 hPa 0,0 l/m N 0,00 h 76 W/m 0,7 km/h (0 Bft)
16.11.2017 12:00 0,5 C 91 % 1023,6 hPa 0,0 l/m O 0,00 h 72 W/m 1,3 km/h (1 Bft)
16.11.2017 13:00 0,7 C 90 % 1023,3 hPa 0,0 l/m O 0,00 h 53 W/m 0,4 km/h (0 Bft)
16.11.2017 14:00 0,7 C 89 % 1023,3 hPa 0,0 l/m NO 0,00 h 39 W/m 4,0 km/h (1 Bft)
16.11.2017 15:00 0,5 C 89 % 1023,6 hPa 0,0 l/m N 0,00 h 19 W/m 1,5 km/h (1 Bft)
16.11.2017 16:00 0,2 C 89 % 1023,7 hPa 0,0 l/m N 0,00 h 8 W/m 0,4 km/h (0 Bft)
16.11.2017 17:00 0,1 C 90 % 1024,1 hPa 0,0 l/m NO 0,00 h 0 W/m 1,7 km/h (1 Bft)
16.11.2017 18:00 -0,1 C 90 % 1024,4 hPa 0,0 l/m N 0,00 h 0 W/m 2,0 km/h (1 Bft)
16.11.2017 19:00 -0,2 C 91 % 1024,8 hPa 0,0 l/m NO 0,00 h 0 W/m 1,6 km/h (1 Bft)
16.11.2017 20:00 -0,3 C 91 % 1025,0 hPa 0,0 l/m NO 0,00 h 0 W/m 1,2 km/h (1 Bft)
16.11.2017 21:00 -0,3 C 91 % 1025,1 hPa 0,0 l/m N 0,00 h 0 W/m 4,4 km/h (1 Bft)
16.11.2017 22:00 -0,3 C 91 % 1025,4 hPa 0,0 l/m N 0,00 h 0 W/m 1,9 km/h (1 Bft)
16.11.2017 23:00 -0,3 C 92 % 1025,3 hPa 0,0 l/m N 0,00 h 0 W/m 3,6 km/h (1 Bft)
17.11.2017 00:00 -0,4 C 92 % 1025,6 hPa 0,0 l/m N 0,00 h 0 W/m 2,0 km/h (1 Bft)
17.11.2017 01:00 -0,5 C 92 % 1025,5 hPa 0,0 l/m N 0,00 h 0 W/m 0,0 km/h (0 Bft)
17.11.2017 02:00 -0,6 C 93 % 1025,4 hPa 0,0 l/m N 0,00 h 0 W/m 4,5 km/h (1 Bft)
17.11.2017 03:00 -0,7 C 93 % 1025,5 hPa 0,0 l/m N 0,00 h 0 W/m 4,8 km/h (1 Bft)
17.11.2017 04:00 -0,7 C 95 % 1025,6 hPa 0,0 l/m W-NW 0,00 h 0 W/m 6,3 km/h (2 Bft)
17.11.2017 05:00 -0,7 C 95 % 1025,6 hPa 0,0 l/m W 0,00 h 0 W/m 2,4 km/h (1 Bft)
17.11.2017 06:00 -0,6 C 95 % 1025,7 hPa 0,0 l/m N 0,00 h 0 W/m 1,7 km/h (1 Bft)
17.11.2017 07:00 -0,4 C 95 % 1025,7 hPa 0,0 l/m N 0,00 h 6 W/m 0,0 km/h (0 Bft)
17.11.2017 08:00 -0,0 C 95 % 1026,0 hPa 0,0 l/m N 0,00 h 23 W/m 0,0 km/h (0 Bft)
17.11.2017 09:00 0,5 C 96 % 1026,1 hPa 0,0 l/m N 0,00 h 65 W/m 0,0 km/h (0 Bft)
17.11.2017 10:00 1,0 C 95 % 1026,1 hPa 0,0 l/m W 0,00 h 77 W/m 1,9 km/h (1 Bft)
17.11.2017 11:00 1,3 C 96 % 1026,0 hPa 0,0 l/m N 0,00 h 107 W/m 0,3 km/h (0 Bft)
17.11.2017 12:00 2,0 C 97 % 1025,7 hPa 0,0 l/m W 0,00 h 95 W/m 1,9 km/h (1 Bft)
17.11.2017 13:00 2,6 C 97 % 1025,6 hPa 0,0 l/m W 0,00 h 71 W/m 2,0 km/h (1 Bft)
17.11.2017 14:00 3,2 C 97 % 1025,1 hPa 0,0 l/m W 0,00 h 73 W/m 4,3 km/h (1 Bft)
17.11.2017 15:00 3,4 C 97 % 1024,9 hPa 0,0 l/m N 0,00 h 39 W/m 1,7 km/h (1 Bft)
17.11.2017 16:00 3,4 C 97 % 1024,7 hPa 0,0 l/m W-NW 0,00 h 11 W/m 2,1 km/h (1 Bft)
17.11.2017 17:00 3,2 C 96 % 1024,8 hPa 0,0 l/m NW 0,00 h 0 W/m 5,1 km/h (1 Bft)
17.11.2017 18:00 2,9 C 96 % 1025,0 hPa 0,0 l/m NW 0,00 h 0 W/m 2,4 km/h (1 Bft)
17.11.2017 19:00 2,9 C 97 % 1024,9 hPa 0,0 l/m NW 0,00 h 0 W/m 2,0 km/h (1 Bft)
17.11.2017 20:00 2,8 C 97 % 1024,8 hPa 0,0 l/m NW 0,00 h 0 W/m 5,6 km/h (1 Bft)
17.11.2017 21:00 2,8 C 97 % 1024,6 hPa 0,0 l/m NW 0,00 h 0 W/m 3,6 km/h (1 Bft)
17.11.2017 22:00 2,7 C 97 % 1024,4 hPa 0,0 l/m N 0,00 h 0 W/m 0,0 km/h (0 Bft)
17.11.2017 23:00 2,7 C 97 % 1024,3 hPa 0,0 l/m N 0,00 h 0 W/m 0,4 km/h (0 Bft)
18.11.2017 00:00 2,6 C 97 % 1024,0 hPa 0,0 l/m N 0,00 h 0 W/m 0,9 km/h (0 Bft)
18.11.2017 01:00 2,4 C 97 % 1023,6 hPa 0,0 l/m NW 0,00 h 0 W/m 0,9 km/h (0 Bft)
18.11.2017 02:00 2,4 C 97 % 1023,2 hPa 0,0 l/m N 0,00 h 0 W/m 0,0 km/h (0 Bft)
18.11.2017 03:00 2,4 C 97 % 1022,9 hPa 0,0 l/m N 0,00 h 0 W/m 1,1 km/h (0 Bft)
18.11.2017 04:00 2,4 C 98 % 1022,9 hPa 0,0 l/m N 0,00 h 0 W/m 1,9 km/h (1 Bft)
18.11.2017 05:00 2,5 C 98 % 1023,0 hPa 0,0 l/m NW 0,00 h 0 W/m 2,3 km/h (1 Bft)
18.11.2017 06:00 2,5 C 98 % 1022,6 hPa 0,0 l/m N 0,00 h 0 W/m 0,9 km/h (0 Bft)
18.11.2017 07:00 2,6 C 98 % 1022,6 hPa 0,0 l/m NW 0,00 h 5 W/m 1,5 km/h (1 Bft)
18.11.2017 08:00 2,6 C 98 % 1022,8 hPa 0,0 l/m NW 0,00 h 18 W/m 0,7 km/h (0 Bft)
18.11.2017 09:00 2,9 C 98 % 1022,6 hPa 0,0 l/m W-NW 0,00 h 55 W/m 3,3 km/h (1 Bft)
18.11.2017 10:00 3,4 C 98 % 1022,5 hPa 0,0 l/m W-NW 0,00 h 67 W/m 6,3 km/h (2 Bft)
18.11.2017 11:00 3,8 C 96 % 1022,2 hPa 0,0 l/m W-NW 0,00 h 86 W/m 3,1 km/h (1 Bft)
18.11.2017 12:00 4,2 C 94 % 1021,8 hPa 0,0 l/m W-SW 0,00 h 110 W/m 9,3 km/h (2 Bft)
18.11.2017 13:00 4,6 C 89 % 1021,1 hPa 0,0 l/m SW 0,00 h 123 W/m 13,3 km/h (3 Bft)
18.11.2017 14:00 4,4 C 87 % 1020,7 hPa 0,0 l/m W 0,00 h 62 W/m 14,1 km/h (3 Bft)
18.11.2017 15:00 4,3 C 87 % 1020,6 hPa 0,0 l/m W-SW 0,00 h 30 W/m 12,1 km/h (2 Bft)
18.11.2017 16:00 4,1 C 87 % 1020,7 hPa 0,0 l/m W-SW 0,00 h 11 W/m 9,8 km/h (2 Bft)
18.11.2017 17:00 3,6 C 88 % 1020,8 hPa 0,0 l/m W-SW 0,00 h 0 W/m 17,7 km/h (3 Bft)
18.11.2017 18:00 3,2 C 89 % 1020,8 hPa 0,0 l/m W-SW 0,00 h 0 W/m 14,2 km/h (3 Bft)
18.11.2017 19:00 2,9 C 88 % 1021,1 hPa 0,0 l/m W-SW 0,00 h 0 W/m 11,1 km/h (2 Bft)
18.11.2017 20:00 2,6 C 88 % 1021,1 hPa 0,0 l/m SW 0,00 h 0 W/m 15,2 km/h (3 Bft)
18.11.2017 21:00 2,5 C 86 % 1021,0 hPa 0,0 l/m W-SW 0,00 h 0 W/m 14,9 km/h (3 Bft)
18.11.2017 22:00 2,4 C 84 % 1020,5 hPa 0,0 l/m SW 0,00 h 0 W/m 12,9 km/h (3 Bft)
18.11.2017 23:00 2,0 C 86 % 1019,6 hPa 0,0 l/m SW 0,00 h 0 W/m 13,2 km/h (3 Bft)
19.11.2017 00:00 1,6 C 89 % 1018,8 hPa 0,4 l/m W-SW 0,00 h 0 W/m 20,6 km/h (4 Bft)
19.11.2017 01:00 0,8 C 94 % 1018,3 hPa 1,4 l/m W-SW 0,00 h 0 W/m 19,2 km/h (3 Bft)
19.11.2017 02:00 0,6 C 96 % 1017,3 hPa 0,8 l/m W-SW 0,00 h 0 W/m 24,8 km/h (4 Bft)
19.11.2017 03:00 0,6 C 96 % 1017,1 hPa 0,6 l/m W-SW 0,00 h 0 W/m 18,5 km/h (3 Bft)
19.11.2017 04:00 0,6 C 97 % 1017,0 hPa 1,4 l/m W-SW 0,00 h 0 W/m 16,2 km/h (3 Bft)
19.11.2017 05:00 0,5 C 97 % 1016,0 hPa 1,0 l/m W-SW 0,00 h 0 W/m 18,9 km/h (3 Bft)
19.11.2017 06:00 0,6 C 97 % 1015,5 hPa 0,4 l/m W-SW 0,00 h 0 W/m 21,8 km/h (4 Bft)
19.11.2017 07:00 0,7 C 97 % 1015,9 hPa 0,0 l/m W-SW 0,00 h 6 W/m 17,6 km/h (3 Bft)
19.11.2017 08:00 0,9 C 98 % 1016,5 hPa 0,0 l/m W-SW 0,00 h 31 W/m 15,7 km/h (3 Bft)
19.11.2017 09:00 1,3 C 97 % 1016,7 hPa 0,0 l/m W-SW 0,33 h 127 W/m 17,4 km/h (3 Bft)
19.11.2017 10:00 1,6 C 97 % 1017,7 hPa 0,2 l/m W-SW 0,00 h 98 W/m 14,5 km/h (3 Bft)
19.11.2017 11:00 1,5 C 97 % 1018,4 hPa 0,6 l/m W 0,08 h 130 W/m 12,4 km/h (3 Bft)
19.11.2017 12:00 1,8 C 96 % 1018,9 hPa 0,2 l/m W 0,25 h 115 W/m 14,6 km/h (3 Bft)
19.11.2017 13:00 1,7 C 97 % 1019,0 hPa 0,4 l/m W 0,42 h 180 W/m 5,9 km/h (2 Bft)
19.11.2017 14:00 3,2 C 94 % 1019,0 hPa 0,0 l/m W 1,00 h 223 W/m 11,8 km/h (2 Bft)
19.11.2017 15:00 2,7 C 91 % 1019,3 hPa 0,0 l/m W 0,50 h 86 W/m 13,6 km/h (3 Bft)
19.11.2017 16:00 2,2 C 90 % 1020,1 hPa 0,0 l/m W 0,50 h 23 W/m 14,9 km/h (3 Bft)
19.11.2017 17:00 1,8 C 91 % 1020,6 hPa 0,0 l/m W-SW 0,00 h 0 W/m 13,0 km/h (3 Bft)
19.11.2017 18:00 1,7 C 91 % 1021,2 hPa 0,0 l/m W-SW 0,00 h 0 W/m 13,3 km/h (3 Bft)
19.11.2017 19:00 1,7 C 91 % 1021,6 hPa 0,0 l/m W 0,00 h 0 W/m 11,6 km/h (2 Bft)
19.11.2017 20:00 1,7 C 91 % 1022,2 hPa 0,0 l/m W 0,00 h 0 W/m 9,7 km/h (2 Bft)
19.11.2017 21:00 1,4 C 91 % 1022,8 hPa 0,0 l/m W 0,00 h 0 W/m 7,4 km/h (2 Bft)
19.11.2017 22:00 1,4 C 91 % 1023,2 hPa 0,0 l/m N 0,00 h 0 W/m 2,0 km/h (1 Bft)
19.11.2017 23:00 1,0 C 91 % 1023,2 hPa 0,0 l/m N 0,00 h 0 W/m 1,1 km/h (0 Bft)
Min-Datum _ 14.11.17 14.11.17 13.11.17 - - - - 13.11.17
_ Min-Zeit 22:25 14:15 00:00 - - - - 00:05
Minimum _ -1,8 C 82 % 1005,2 hPa - - - - 0,0 km/h (0 Bft)
Max-Datum _ 18.11.17 17.11.17 14.11.17 13.11.17 - 13.11.17 13.11.17 19.11.17
_ Max-Zeit 13:35 04:15 22:30 02:45 - 09:05 12:35 02:15
Maximum _ 4,9 C 100 % 1027,2 hPa 1,4 l/m - 0,08 h 512 W/m 30,6 km/h
SW (5 Bft)
Durchschnitt _ 1,1 C 94 % 1022,0 hPa #10,2 l/m W-SW #9:45 h 93 W/m 6,1 km/h (2 Bft)